Time;durP1;ratioP1;P1;durP2;ratioP2;P2;SDS_P1;SDS_P2;PMS_P1;PMS_P2;Temp;Humidity;BMP_temperature;BMP_pressure;BME280_temperature;BME280_humidity;BME280_pressure;Samples;Min_cycle;Max_cycle;Signal;HPM_P1;HPM_P2
2022/01/07 00:02:22;;;;;;;4.65;2.52;;;;;;;3.92;95.94;148648.25;1656383;84;21853;-59
2022/01/07 00:04:49;;;;;;;6.50;3.10;;;;;;;3.93;95.90;148652.16;1656311;84;21652;-58
2022/01/07 00:07:17;;;;;;;8.90;3.10;;;;;;;3.92;95.85;148648.25;1656771;86;21415;-59
2022/01/07 00:09:43;;;;;;;5.35;3.15;;;;;;;3.91;95.81;148646.98;1656725;86;21084;-58
2022/01/07 00:12:12;;;;;;;7.10;3.37;;;;;;;3.91;95.69;148646.98;1656711;84;21009;-59
2022/01/07 00:14:39;;;;;;;6.97;3.30;;;;;;;3.90;95.66;148644.41;1656739;86;21005;-58
2022/01/07 00:17:06;;;;;;;6.17;3.15;;;;;;;3.91;95.64;148645.67;1656358;84;21060;-58
2022/01/07 00:19:33;;;;;;;6.42;3.50;;;;;;;3.90;95.63;148644.41;1656738;84;21112;-58
2022/01/07 00:22:00;;;;;;;5.80;3.35;;;;;;;3.87;95.67;148636.67;1656469;84;21060;-58
2022/01/07 00:24:26;;;;;;;6.67;3.30;;;;;;;3.86;95.88;148634.05;1656972;84;21017;-58
2022/01/07 00:26:53;;;;;;;5.25;3.00;;;;;;;3.84;95.87;148628.88;1655814;84;21155;-58
2022/01/07 00:29:19;;;;;;;7.17;3.58;;;;;;;3.83;96.13;148626.30;1656405;84;21545;-58
2022/01/07 00:31:46;;;;;;;5.50;3.17;;;;;;;3.84;96.27;148628.88;1656427;86;21140;-58
2022/01/07 00:34:12;;;;;;;7.58;3.87;;;;;;;3.86;96.42;148635.36;1656581;84;20977;-58
2022/01/07 00:36:39;;;;;;;5.90;3.33;;;;;;;3.91;96.49;148645.67;1656818;84;20977;-58
2022/01/07 00:39:07;;;;;;;6.95;3.40;;;;;;;3.97;96.60;148662.47;1656450;86;21080;-58
2022/01/07 00:41:34;;;;;;;7.85;3.92;;;;;;;4.04;96.48;148677.95;1656713;84;21029;-58
2022/01/07 00:44:03;;;;;;;8.90;3.85;;;;;;;4.08;96.24;148688.27;1656400;85;21151;-59
2022/01/07 00:46:30;;;;;;;10.05;3.77;;;;;;;4.07;95.96;148685.69;1656917;84;21018;-59
2022/01/07 00:48:56;;;;;;;10.45;3.30;;;;;;;4.05;95.98;148681.84;1657026;86;21050;-60
2022/01/07 00:51:23;;;;;;;11.63;4.35;;;;;;;4.05;95.91;148680.53;1656846;84;21454;-58
2022/01/07 00:53:50;;;;;;;7.97;3.70;;;;;;;4.03;95.80;148676.69;1656663;85;21048;-58
2022/01/07 00:56:16;;;;;;;5.67;3.22;;;;;;;4.00;95.80;148670.20;1656708;86;21108;-58
2022/01/07 00:58:43;;;;;;;8.20;4.30;;;;;;;3.98;95.92;148665.05;1656693;86;21005;-58
2022/01/07 01:01:12;;;;;;;7.97;4.47;;;;;;;3.98;96.07;148665.05;1656468;84;21259;-59
2022/01/07 01:03:40;;;;;;;7.17;3.98;;;;;;;3.96;96.11;148659.89;1655015;86;21006;-59
2022/01/07 01:06:09;;;;;;;6.85;3.80;;;;;;;3.96;96.25;148658.58;1654742;86;21041;-58
2022/01/07 01:08:36;;;;;;;8.90;3.65;;;;;;;3.94;96.32;148654.73;1655280;85;21021;-58
2022/01/07 01:11:04;;;;;;;9.65;3.98;;;;;;;3.92;96.41;148649.56;1655124;85;21071;-58
2022/01/07 01:13:32;;;;;;;7.33;4.35;;;;;;;3.92;96.61;148649.56;1655451;86;20870;-59
2022/01/07 01:15:59;;;;;;;9.55;4.47;;;;;;;3.89;96.66;148641.83;1654775;86;22037;-59
2022/01/07 01:18:25;;;;;;;8.75;4.47;;;;;;;3.86;96.80;148634.05;1655053;86;21451;-58
2022/01/07 01:20:52;;;;;;;13.25;5.78;;;;;;;3.85;97.01;148631.45;1654631;85;21092;-59
2022/01/07 01:23:18;;;;;;;9.50;4.50;;;;;;;3.84;97.06;148630.19;1655094;85;21145;-58
2022/01/07 01:25:45;;;;;;;10.28;4.78;;;;;;;3.82;97.16;148623.72;1654591;85;21554;-58
2022/01/07 01:28:12;;;;;;;8.93;4.95;;;;;;;3.81;97.23;148621.14;1654592;85;21150;-58
2022/01/07 01:30:38;;;;;;;9.50;5.53;;;;;;;3.77;97.08;148610.81;1654549;85;21108;-57
2022/01/07 01:33:05;;;;;;;9.80;5.70;;;;;;;3.77;97.42;148612.14;1654335;86;21096;-60
2022/01/07 01:35:33;;;;;;;11.33;6.05;;;;;;;3.81;97.62;148621.14;1654904;86;21416;-60
2022/01/07 01:38:00;;;;;;;10.67;5.87;;;;;;;3.85;97.57;148632.78;1654919;85;21089;-59
2022/01/07 01:40:28;;;;;;;10.90;6.55;;;;;;;3.87;97.42;148636.67;1655175;85;21351;-63
2022/01/07 01:42:57;;;;;;;11.90;6.25;;;;;;;3.87;97.19;148636.67;1654278;85;21079;-66
2022/01/07 01:45:24;;;;;;;11.35;6.03;;;;;;;3.83;97.01;148626.30;1655136;85;21483;-63
2022/01/07 01:47:52;;;;;;;10.23;6.30;;;;;;;3.78;97.01;148613.41;1654265;86;21096;-63
2022/01/07 01:50:19;;;;;;;10.50;5.67;;;;;;;3.77;97.12;148610.81;1654657;85;21088;-61
2022/01/07 01:52:50;;;;;;;13.45;6.20;;;;;;;3.77;97.28;148610.81;1654501;86;21158;-64
2022/01/07 01:55:18;;;;;;;13.05;7.05;;;;;;;3.83;97.52;148626.30;1654710;85;21092;-63
2022/01/07 01:57:45;;;;;;;10.60;6.35;;;;;;;3.87;97.24;148637.94;1654357;85;21066;-62
2022/01/07 02:00:13;;;;;;;11.73;6.40;;;;;;;3.86;96.94;148635.36;1654416;85;21262;-61
2022/01/07 02:02:40;;;;;;;15.80;7.28;;;;;;;3.84;96.75;148630.19;1654445;86;20986;-63
2022/01/07 02:05:09;;;;;;;13.53;6.87;;;;;;;3.78;96.66;148614.72;1654221;85;21525;-63
2022/01/07 02:07:39;;;;;;;10.95;6.90;;;;;;;3.72;96.79;148600.50;1654812;85;21029;-62
2022/01/07 02:10:08;;;;;;;10.85;6.92;;;;;;;3.70;96.86;148594.03;1654034;85;21522;-61
2022/01/07 02:12:35;;;;;;;10.88;6.92;;;;;;;3.69;96.98;148591.45;1651105;86;21820;-59
2022/01/07 02:15:03;;;;;;;13.43;7.53;;;;;;;3.67;97.00;148587.61;1654475;85;21108;-58
2022/01/07 02:17:30;;;;;;;12.45;7.20;;;;;;;3.65;97.07;148582.45;1655174;86;21240;-61
2022/01/07 02:19:57;;;;;;;11.83;7.25;;;;;;;3.63;97.35;148577.25;1654542;85;21334;-63
2022/01/07 02:22:23;;;;;;;12.80;7.12;;;;;;;3.59;97.35;148566.92;1654764;85;21566;-63
2022/01/07 02:24:50;;;;;;;13.93;8.08;;;;;;;3.56;97.39;148560.50;1654283;86;21083;-63
2022/01/07 02:27:17;;;;;;;13.08;7.58;;;;;;;3.54;97.54;148554.03;1654520;86;21203;-62
2022/01/07 02:29:47;;;;;;;16.67;8.08;;;;;;;3.50;97.96;148543.72;1654535;85;22307;-62
2022/01/07 02:32:14;;;;;;;11.90;7.67;;;;;;;3.43;98.25;148528.23;1654714;85;21071;-62
2022/01/07 02:34:41;;;;;;;21.27;10.98;;;;;;;3.41;98.77;148523.03;1655162;85;20918;-62
2022/01/07 02:37:08;;;;;;;21.90;9.93;;;;;;;3.39;99.02;148516.61;1654505;85;21083;-62
2022/01/07 02:39:35;;;;;;;27.80;12.75;;;;;;;3.39;99.20;148516.61;1654866;86;21359;-63
2022/01/07 02:42:02;;;;;;;20.43;9.70;;;;;;;3.40;99.53;148520.45;1654698;86;21698;-63
2022/01/07 02:44:29;;;;;;;25.72;11.22;;;;;;;3.38;99.61;148515.30;1654817;85;21049;-62
2022/01/07 02:46:56;;;;;;;19.23;9.83;;;;;;;3.37;99.76;148512.72;1654258;85;21123;-62
2022/01/07 02:49:23;;;;;;;25.05;11.08;;;;;;;3.37;99.87;148512.72;1654965;85;21069;-64
2022/01/07 02:51:51;;;;;;;18.52;8.93;;;;;;;3.38;100.00;148515.30;1654403;85;21693;-62
2022/01/07 02:54:18;;;;;;;18.77;9.60;;;;;;;3.39;99.91;148517.88;1654434;85;21341;-62
2022/01/07 02:56:46;;;;;;;19.65;10.35;;;;;;;3.36;99.89;148508.87;1654290;85;21081;-62
2022/01/07 02:59:12;;;;;;;22.13;9.80;;;;;;;3.35;99.95;148507.56;1654761;85;21514;-62
2022/01/07 03:01:39;;;;;;;18.60;8.53;;;;;;;3.33;99.93;148502.41;1655044;86;20998;-62
2022/01/07 03:04:07;;;;;;;14.23;7.90;;;;;;;3.33;100.00;148502.41;1665476;86;21120;-62
2022/01/07 03:06:34;;;;;;;14.13;8.40;;;;;;;3.31;100.00;148497.25;1666260;86;21612;-62
2022/01/07 03:09:01;;;;;;;16.75;7.87;;;;;;;3.25;99.94;148481.77;1666096;84;21092;-62
2022/01/07 03:11:29;;;;;;;12.60;7.60;;;;;;;3.21;100.00;148472.72;1666580;84;21012;-63
2022/01/07 03:13:55;;;;;;;12.00;7.87;;;;;;;3.17;100.00;148461.09;1665795;84;21079;-62
2022/01/07 03:16:24;;;;;;;12.30;8.10;;;;;;;3.12;100.00;148449.52;1666562;86;21501;-58
2022/01/07 03:18:50;;;;;;;12.60;7.45;;;;;;;3.09;100.00;148443.05;1665874;86;21379;-63
2022/01/07 03:21:17;;;;;;;14.63;8.75;;;;;;;3.06;100.00;148434.00;1665906;86;21352;-63
2022/01/07 03:23:45;;;;;;;15.60;8.15;;;;;;;3.01;100.00;148422.42;1666060;86;21092;-62
2022/01/07 03:26:12;;;;;;;14.93;7.92;;;;;;;2.97;100.00;148412.06;1665796;86;21052;-61
2022/01/07 03:28:43;;;;;;;12.35;7.85;;;;;;;2.96;100.00;148409.48;1666432;86;21029;-61
2022/01/07 03:31:07;;;;;;;12.68;7.28;;;;;;;2.91;100.00;148397.91;1664694;86;21171;-62
2022/01/07 03:33:34;;;;;;;13.30;7.72;;;;;;;2.88;100.00;148388.86;1666492;86;21198;-62
2022/01/07 03:36:00;;;;;;;12.47;7.05;;;;;;;2.84;100.00;148381.12;1666313;86;21064;-61
2022/01/07 03:38:27;;;;;;;13.05;7.03;;;;;;;2.81;100.00;148373.41;1666078;86;21108;-61
2022/01/07 03:40:54;;;;;;;13.03;7.80;;;;;;;2.77;99.98;148363.09;1665533;84;21099;-62
2022/01/07 03:43:20;;;;;;;16.23;8.28;;;;;;;2.73;99.87;148352.72;1666152;86;21580;-61
2022/01/07 03:45:47;;;;;;;14.18;7.45;;;;;;;2.70;99.88;148345.00;1665941;84;21041;-63
2022/01/07 03:48:13;;;;;;;15.23;7.95;;;;;;;2.68;99.93;148339.84;1665777;84;21095;-61
2022/01/07 03:50:40;;;;;;;18.00;8.43;;;;;;;2.67;99.97;148337.27;1666334;86;21460;-61
2022/01/07 03:53:06;;;;;;;18.25;9.35;;;;;;;2.66;99.91;148336.00;1666103;84;21537;-62
2022/01/07 03:55:34;;;;;;;17.87;9.20;;;;;;;2.62;100.00;148324.38;1666415;84;21522;-62
2022/01/07 03:58:01;;;;;;;15.88;9.40;;;;;;;2.58;100.00;148316.64;1665806;86;21135;-62
2022/01/07 04:00:38;;;;;;;14.78;8.65;;;;;;;2.54;100.00;148306.34;1666064;84;21088;-62
2022/01/07 04:03:11;;;;;;;17.32;10.13;;;;;;;2.52;100.00;148301.13;1667006;85;21099;-62
2022/01/07 04:05:38;;;;;;;22.62;12.80;;;;;;;2.49;100.00;148293.41;1668681;86;20965;-61
2022/01/07 04:08:06;;;;;;;23.25;11.88;;;;;;;2.48;100.00;148290.83;1668119;85;21824;-61
2022/01/07 04:10:32;;;;;;;22.87;12.28;;;;;;;2.45;100.00;148283.09;1639910;86;21020;-61
2022/01/07 04:13:00;;;;;;;24.95;13.65;;;;;;;2.42;100.00;148276.62;1668524;84;21513;-62
2022/01/07 04:15:26;;;;;;;19.85;11.90;;;;;;;2.39;100.00;148267.63;1668886;86;21521;-62
2022/01/07 04:17:54;;;;;;;18.55;11.53;;;;;;;2.37;100.00;148262.48;1668520;86;21060;-62
2022/01/07 04:20:24;;;;;;;18.25;9.80;;;;;;;2.35;100.00;148257.33;1668288;84;22376;-62
2022/01/07 04:22:51;;;;;;;18.75;10.43;;;;;;;2.31;100.00;148248.28;1667846;84;21096;-62
2022/01/07 04:25:18;;;;;;;16.82;9.15;;;;;;;2.28;100.00;148241.81;1668094;86;21360;-62
2022/01/07 04:27:46;;;;;;;22.35;8.25;;;;;;;2.25;100.00;148234.09;1667969;86;21052;-62
2022/01/07 04:30:14;;;;;;;19.05;9.88;;;;;;;2.23;100.00;148228.94;1668168;84;21233;-63
2022/01/07 04:32:42;;;;;;;16.70;8.75;;;;;;;2.22;100.00;148226.36;1668189;84;21149;-58
2022/01/07 04:35:11;;;;;;;21.40;8.95;;;;;;;2.20;100.00;148221.20;1667782;86;21131;-59
2022/01/07 04:37:38;;;;;;;16.05;8.55;;;;;;;2.18;100.00;148216.06;1668523;84;21088;-59
2022/01/07 04:40:06;;;;;;;16.77;8.98;;;;;;;2.17;100.00;148213.47;1668639;86;21076;-59
2022/01/07 04:42:35;;;;;;;15.25;8.38;;;;;;;2.16;100.00;148210.91;1668845;85;21138;-58
2022/01/07 04:45:05;;;;;;;19.55;8.60;;;;;;;2.16;100.00;148210.91;1668254;84;21152;-59
2022/01/07 04:47:35;;;;;;;13.60;8.38;;;;;;;2.15;100.00;148209.59;1668830;84;20950;-59
2022/01/07 04:50:04;;;;;;;27.15;13.20;;;;;;;2.17;100.00;148212.16;1668258;84;21115;-59
2022/01/07 04:52:30;;;;;;;26.97;12.73;;;;;;;2.15;100.00;148208.33;1668933;84;21072;-59
2022/01/07 04:54:57;;;;;;;20.40;10.30;;;;;;;2.12;100.00;148200.59;1668827;86;21552;-59
2022/01/07 04:57:23;;;;;;;25.60;12.05;;;;;;;2.11;100.00;148198.02;1668529;86;21202;-58
2022/01/07 04:59:50;;;;;;;17.92;8.68;;;;;;;2.11;100.00;148199.28;1668604;85;21096;-58
2022/01/07 05:02:19;;;;;;;16.05;8.00;;;;;;;2.12;100.00;148200.59;1668328;86;21525;-59
2022/01/07 05:04:46;;;;;;;16.97;8.63;;;;;;;2.13;100.00;148203.17;1656663;84;21053;-58
2022/01/07 05:07:13;;;;;;;16.25;8.98;;;;;;;2.15;100.00;148208.33;1656558;84;21112;-57
2022/01/07 05:09:40;;;;;;;17.62;8.38;;;;;;;2.16;100.00;148210.91;1656821;86;22009;-57
2022/01/07 05:12:07;;;;;;;18.27;9.65;;;;;;;2.16;100.00;148210.91;1656317;86;21044;-58
2022/01/07 05:14:34;;;;;;;17.57;9.20;;;;;;;2.17;100.00;148213.47;1656828;84;21081;-59
2022/01/07 05:17:03;;;;;;;18.27;8.53;;;;;;;2.16;100.00;148210.91;1656491;86;21490;-58
2022/01/07 05:19:30;;;;;;;14.53;8.38;;;;;;;2.16;100.00;148210.91;1656814;86;21524;-58
2022/01/07 05:21:56;;;;;;;15.23;8.73;;;;;;;2.16;100.00;148210.91;1656501;84;21245;-58
2022/01/07 05:24:23;;;;;;;16.85;8.25;;;;;;;2.15;100.00;148208.33;1656833;86;21084;-58
2022/01/07 05:26:49;;;;;;;14.98;8.58;;;;;;;2.12;100.00;148200.59;1656592;86;21010;-59
2022/01/07 05:29:16;;;;;;;14.05;8.35;;;;;;;2.11;100.00;148198.02;1656752;84;21092;-58
2022/01/07 05:31:42;;;;;;;14.95;8.13;;;;;;;2.10;100.00;148196.70;1656736;84;21025;-58
2022/01/07 05:34:09;;;;;;;19.75;10.20;;;;;;;2.09;100.00;148192.81;1656668;84;21174;-58
2022/01/07 05:36:38;;;;;;;18.48;9.78;;;;;;;2.08;100.00;148190.25;1656766;85;21061;-59
2022/01/07 05:39:08;;;;;;;16.17;8.30;;;;;;;2.07;100.00;148187.67;1656428;86;21083;-58
2022/01/07 05:41:35;;;;;;;15.23;8.18;;;;;;;2.06;100.00;148186.41;1656803;86;21534;-58
2022/01/07 05:44:01;;;;;;;15.53;8.03;;;;;;;2.05;100.00;148182.52;1656486;86;21112;-58
2022/01/07 05:46:28;;;;;;;17.48;9.23;;;;;;;2.06;100.00;148185.09;1656787;86;21069;-58
2022/01/07 05:48:54;;;;;;;15.25;8.18;;;;;;;2.04;100.00;148179.94;1655909;84;21581;-59
2022/01/07 05:51:21;;;;;;;12.50;7.72;;;;;;;2.03;100.00;148177.36;1656543;84;21132;-59
2022/01/07 05:53:47;;;;;;;14.40;7.50;;;;;;;2.02;100.00;148176.09;1656449;84;21081;-59
2022/01/07 05:56:14;;;;;;;15.85;7.62;;;;;;;2.02;100.00;148176.09;1656593;84;21064;-59
2022/01/07 05:58:41;;;;;;;12.65;7.50;;;;;;;2.02;100.00;148174.78;1656632;86;21669;-59
2022/01/07 06:01:09;;;;;;;14.23;8.03;;;;;;;2.02;100.00;148174.78;1656177;86;21125;-59
2022/01/07 06:03:35;;;;;;;11.68;7.05;;;;;;;1.98;100.00;148167.06;1656600;85;21553;-59
2022/01/07 06:06:03;;;;;;;12.95;7.80;;;;;;;1.96;100.00;148160.59;1656089;84;21092;-59
2022/01/07 06:08:30;;;;;;;14.47;8.30;;;;;;;1.96;100.00;148161.91;1656934;84;21036;-59
2022/01/07 06:10:57;;;;;;;19.50;7.83;;;;;;;1.97;100.00;148164.48;1656505;84;21116;-58
2022/01/07 06:13:25;;;;;;;16.50;8.35;;;;;;;1.98;100.00;148167.06;1656374;84;21037;-59
2022/01/07 06:15:51;;;;;;;15.72;8.83;;;;;;;2.02;100.00;148176.09;1656582;84;21576;-59
2022/01/07 06:18:18;;;;;;;18.62;8.33;;;;;;;2.00;100.00;148172.22;1656256;85;21084;-58
2022/01/07 06:20:44;;;;;;;16.27;7.78;;;;;;;2.02;100.00;148174.78;1656219;86;21639;-59
2022/01/07 06:23:11;;;;;;;16.57;8.30;;;;;;;2.01;100.00;148173.53;1655951;86;21167;-59
2022/01/07 06:25:38;;;;;;;13.48;7.37;;;;;;;1.99;100.00;148169.64;1656550;86;21065;-58
2022/01/07 06:28:05;;;;;;;16.23;7.78;;;;;;;1.98;100.00;148167.06;1656428;86;21217;-58
2022/01/07 06:30:31;;;;;;;13.68;7.70;;;;;;;1.98;100.00;148167.06;1657095;84;21069;-58
2022/01/07 06:32:58;;;;;;;16.23;7.28;;;;;;;1.99;99.91;148169.64;1656414;86;21139;-58
2022/01/07 06:35:25;;;;;;;16.80;7.92;;;;;;;2.00;99.44;148172.22;1656857;85;21509;-60
2022/01/07 06:37:51;;;;;;;13.13;7.55;;;;;;;2.05;99.24;148182.52;1656492;86;21116;-59
2022/01/07 06:40:18;;;;;;;14.23;7.83;;;;;;;2.07;98.97;148187.67;1656664;86;20981;-58
2022/01/07 06:42:44;;;;;;;12.88;6.97;;;;;;;2.09;98.72;148194.13;1656870;86;20973;-60
2022/01/07 06:45:11;;;;;;;13.43;7.33;;;;;;;2.12;98.47;148200.59;1656524;86;21113;-59
2022/01/07 06:47:39;;;;;;;15.30;7.90;;;;;;;2.14;98.43;148205.75;1656947;86;21348;-60
2022/01/07 06:50:07;;;;;;;14.18;7.42;;;;;;;2.17;98.32;148213.47;1656696;86;21143;-60
2022/01/07 06:52:34;;;;;;;15.18;8.20;;;;;;;2.20;98.14;148221.20;1656977;84;21542;-58
2022/01/07 06:55:01;;;;;;;20.37;7.75;;;;;;;2.21;97.94;148223.78;1656808;86;21045;-59
2022/01/07 06:57:28;;;;;;;13.98;8.03;;;;;;;2.23;97.83;148228.94;1656963;85;21554;-59
2022/01/07 06:59:55;;;;;;;13.58;7.22;;;;;;;2.24;97.82;148231.52;1656561;84;21124;-58
2022/01/07 07:02:21;;;;;;;17.02;8.08;;;;;;;2.27;97.60;148239.25;1656514;84;21088;-59
2022/01/07 07:04:48;;;;;;;14.68;7.65;;;;;;;2.29;97.10;148244.39;1657855;85;21045;-58
2022/01/07 07:07:15;;;;;;;12.75;7.35;;;;;;;2.28;96.33;148240.56;1658505;85;21671;-59
2022/01/07 07:09:42;;;;;;;69.85;28.98;;;;;;;2.29;96.22;148243.13;1658417;85;21006;-59
2022/01/07 07:12:11;;;;;;;18.42;9.03;;;;;;;2.31;95.95;148246.97;1658438;85;21096;-58
2022/01/07 07:14:38;;;;;;;12.63;6.15;;;;;;;2.32;95.39;148249.55;1658796;86;21001;-58
2022/01/07 07:17:05;;;;;;;11.78;6.78;;;;;;;2.32;94.75;148249.55;1658484;86;21068;-58
2022/01/07 07:19:32;;;;;;;12.95;6.62;;;;;;;2.33;94.49;148252.17;1658764;85;21046;-59
2022/01/07 07:21:59;;;;;;;10.28;6.35;;;;;;;2.32;93.64;148250.86;1658178;85;21028;-59
2022/01/07 07:24:26;;;;;;;8.90;5.12;;;;;;;2.33;92.26;148252.17;1658565;85;21807;-58
2022/01/07 07:26:52;;;;;;;8.98;5.58;;;;;;;2.29;91.01;148244.39;1658582;86;20970;-62
2022/01/07 07:29:20;;;;;;;17.00;5.62;;;;;;;2.28;90.60;148240.56;1657840;86;21088;-60
2022/01/07 07:31:50;;;;;;;8.38;4.87;;;;;;;2.27;90.74;148239.25;1658051;86;21566;-60
2022/01/07 07:34:31;;;;;;;9.33;4.97;;;;;;;2.25;89.49;148232.83;1658163;86;21489;-59
2022/01/07 07:36:46;;;;;;;11.45;5.80;;;;;;;2.22;88.90;148225.09;1656021;86;21415;-59
2022/01/07 07:39:14;;;;;;;9.75;4.92;;;;;;;2.22;88.62;148225.09;1658224;86;21076;-60
2022/01/07 07:41:42;;;;;;;9.98;4.95;;;;;;;2.18;87.46;148216.06;1658822;85;21120;-60
2022/01/07 07:44:08;;;;;;;12.95;6.42;;;;;;;2.18;87.01;148214.73;1658413;86;21064;-59
2022/01/07 07:46:38;;;;;;;7.30;4.20;;;;;;;2.14;85.78;148207.02;1658865;85;21420;-59
2022/01/07 07:49:05;;;;;;;19.82;7.75;;;;;;;2.14;85.72;148207.02;1658489;85;21143;-58
2022/01/07 07:51:31;;;;;;;11.85;4.58;;;;;;;2.16;85.67;148210.91;1658620;86;21093;-60
2022/01/07 07:53:59;;;;;;;10.40;5.37;;;;;;;2.15;84.76;148208.33;1658497;85;21431;-58
2022/01/07 07:56:26;;;;;;;7.25;3.70;;;;;;;2.16;85.10;148210.91;1658698;86;21497;-58
2022/01/07 07:58:54;;;;;;;6.03;4.05;;;;;;;2.20;84.79;148219.89;1658514;86;21546;-58
2022/01/07 08:01:21;;;;;;;20.02;4.65;;;;;;;2.23;84.51;148228.94;1658670;85;21151;-59
2022/01/07 08:03:48;;;;;;;16.42;5.97;;;;;;;2.24;83.75;148231.52;1658297;85;21024;-60
2022/01/07 08:06:15;;;;;;;17.10;7.78;;;;;;;2.26;83.19;148236.66;1658269;86;21562;-59
2022/01/07 08:08:41;;;;;;;11.65;4.67;;;;;;;2.29;83.18;148244.39;1658834;85;21108;-58
2022/01/07 08:11:12;;;;;;;28.10;13.75;;;;;;;2.34;83.07;148254.75;1658221;86;21131;-61
2022/01/07 08:16:23;;;;;;;12.73;6.72;;;;;;;2.34;80.47;148256.02;1658718;86;21067;-60
2022/01/07 08:18:53;;;;;;;27.75;12.98;;;;;;;2.32;78.78;148249.55;1658616;86;21063;-59
2022/01/07 08:21:21;;;;;;;22.13;9.38;;;;;;;2.28;78.59;148241.81;1658833;86;21481;-62
2022/01/07 08:23:48;;;;;;;22.52;11.05;;;;;;;2.25;77.47;148232.83;1658545;86;21018;-62
2022/01/07 08:26:16;;;;;;;11.08;5.08;;;;;;;2.22;77.22;148226.36;1658704;85;21080;-63
2022/01/07 08:28:52;;;;;;;8.58;4.12;;;;;;;2.19;76.70;148218.62;1658468;86;20986;-63
2022/01/07 08:36:31;;;;;;;7.58;3.90;;;;;;;2.10;76.77;148195.41;1658740;85;21036;-62
2022/01/07 08:38:57;;;;;;;5.85;2.83;;;;;;;2.10;76.71;148195.41;1658732;85;21987;-62
2022/01/07 08:41:29;;;;;;;13.90;2.50;;;;;;;2.13;76.39;148204.44;1658706;85;21112;-64
2022/01/07 08:43:55;;;;;;;9.60;3.35;;;;;;;2.20;74.22;148221.20;1658318;85;21060;-64
2022/01/07 08:46:22;;;;;;;17.17;4.62;;;;;;;2.27;74.00;148239.25;1658819;85;21036;-62
2022/01/07 08:48:49;;;;;;;9.75;4.15;;;;;;;2.35;74.13;148258.59;1658545;85;20989;-63
2022/01/07 08:51:16;;;;;;;6.60;2.45;;;;;;;2.43;74.84;148277.94;1658401;86;22241;-63
2022/01/07 08:53:43;;;;;;;3.72;1.67;;;;;;;2.55;74.28;148308.91;1658689;85;21017;-64
2022/01/07 08:56:10;;;;;;;4.90;2.80;;;;;;;2.66;73.46;148334.69;1658493;86;21132;-65
2022/01/07 08:58:37;;;;;;;4.03;2.12;;;;;;;2.72;73.61;148350.16;1658697;85;20993;-62
2022/01/07 09:01:04;;;;;;;4.47;2.35;;;;;;;2.80;71.83;148370.81;1658416;85;21116;-62
2022/01/07 09:03:33;;;;;;;8.85;2.33;;;;;;;2.84;71.19;148381.12;1658804;86;20973;-63
2022/01/07 09:05:59;;;;;;;8.63;2.70;;;;;;;2.94;70.55;148404.33;1654867;85;21070;-65
2022/01/07 09:08:26;;;;;;;4.12;2.30;;;;;;;3.03;69.81;148427.58;1686323;83;21353;-63
2022/01/07 09:10:53;;;;;;;6.47;3.17;;;;;;;3.10;67.60;148445.62;1673942;85;20968;-62
2022/01/07 09:13:21;;;;;;;18.48;9.10;;;;;;;3.12;67.38;148450.78;1722823;81;21029;-63
2022/01/07 09:15:49;;;;;;;8.90;3.70;;;;;;;3.14;67.23;148455.94;1723083;83;21148;-62
2022/01/07 09:18:15;;;;;;;19.48;9.75;;;;;;;3.13;67.26;148453.36;1723103;83;21154;-62
2022/01/07 09:20:44;;;;;;;4.53;2.30;;;;;;;3.12;66.24;148450.78;1723227;83;21013;-62
2022/01/07 09:23:11;;;;;;;4.58;1.98;;;;;;;3.11;65.35;148448.20;1723088;83;21095;-63
2022/01/07 09:25:38;;;;;;;10.28;4.95;;;;;;;3.06;63.96;148435.31;1723326;83;20933;-63
2022/01/07 09:28:06;;;;;;;10.63;4.62;;;;;;;3.03;64.83;148426.27;1722840;83;21145;-63
2022/01/07 09:30:34;;;;;;;15.18;6.03;;;;;;;3.05;63.47;148432.73;1722836;81;21008;-63
2022/01/07 09:33:13;;;;;;;8.78;4.78;;;;;;;3.05;62.43;148431.42;1723074;83;21064;-64
2022/01/07 09:35:39;;;;;;;17.80;8.75;;;;;;;3.09;63.06;148443.05;1723154;81;20976;-63
2022/01/07 09:38:07;;;;;;;14.90;6.25;;;;;;;3.12;63.53;148450.78;1723180;81;21406;-63
2022/01/07 09:40:34;;;;;;;9.85;4.12;;;;;;;3.17;63.87;148461.09;1723591;83;22520;-63
2022/01/07 09:43:05;;;;;;;7.67;3.30;;;;;;;3.18;63.79;148463.67;1723010;83;21048;-63
2022/01/07 09:45:34;;;;;;;9.73;4.40;;;;;;;3.20;63.64;148468.83;1723588;81;20997;-63
2022/01/07 09:48:01;;;;;;;8.43;2.35;;;;;;;3.22;63.76;148474.03;1723514;81;21649;-62
2022/01/07 09:50:30;;;;;;;4.45;1.67;;;;;;;3.26;63.37;148484.34;1723541;83;21268;-63
2022/01/07 09:52:56;;;;;;;3.87;1.67;;;;;;;3.29;63.09;148492.09;1723172;83;21135;-58
2022/01/07 09:55:27;;;;;;;2.90;1.67;;;;;;;3.28;62.08;148489.50;1723145;83;21048;-62
2022/01/07 09:57:52;;;;;;;6.78;3.60;;;;;;;3.27;62.80;148486.94;1722372;83;21383;-62
2022/01/07 10:00:18;;;;;;;4.75;2.00;;;;;;;3.28;63.01;148489.50;1723100;83;21064;-62
2022/01/07 10:03:09;;;;;;;7.60;3.35;;;;;;;3.30;62.91;148495.92;1723558;83;21055;-62
2022/01/07 10:05:44;;;;;;;5.70;2.62;;;;;;;3.34;62.53;148504.97;1707306;83;21519;-61
2022/01/07 10:08:28;;;;;;;13.95;7.17;;;;;;;3.31;62.20;148497.25;1694954;83;21257;-62
2022/01/07 10:11:16;;;;;;;21.40;9.98;;;;;;;3.28;62.71;148489.50;1695515;84;20960;-58
2022/01/07 10:13:44;;;;;;;16.52;8.65;;;;;;;3.28;63.38;148489.50;1695362;83;21170;-58
2022/01/07 10:16:20;;;;;;;5.65;3.00;;;;;;;3.28;62.69;148489.50;1695074;84;21098;-57
2022/01/07 10:18:47;;;;;;;3.72;1.90;;;;;;;3.27;62.65;148486.94;1695246;83;20953;-57
2022/01/07 10:21:16;;;;;;;5.25;1.98;;;;;;;3.28;61.82;148489.50;1694893;83;21553;-59
2022/01/07 10:23:44;;;;;;;12.55;5.20;;;;;;;3.30;60.73;148494.67;1695584;84;21434;-60
2022/01/07 10:26:14;;;;;;;10.82;5.20;;;;;;;3.31;61.08;148497.25;1695165;84;21339;-58
2022/01/07 10:28:40;;;;;;;5.80;1.80;;;;;;;3.37;60.52;148512.72;1695623;84;20913;-59
2022/01/07 10:31:08;;;;;;;3.20;1.67;;;;;;;3.40;60.02;148519.19;1694967;84;21859;-60
2022/01/07 10:33:41;;;;;;;1.82;1.12;;;;;;;3.41;58.50;148523.03;1695390;83;20993;-58
2022/01/07 10:36:13;;;;;;;3.25;1.90;;;;;;;3.39;57.83;148517.88;1694981;84;21049;-59
2022/01/07 10:38:55;;;;;;;3.67;1.87;;;;;;;3.38;58.36;148515.30;1695360;83;21020;-59
2022/01/07 10:41:22;;;;;;;6.62;2.17;;;;;;;3.38;57.85;148515.30;1695043;83;21100;-59
2022/01/07 10:43:49;;;;;;;5.97;1.80;;;;;;;3.39;57.46;148517.88;1695217;84;21471;-59
2022/01/07 10:46:27;;;;;;;2.47;1.42;;;;;;;3.42;57.30;148524.34;1694839;83;21092;-58
2022/01/07 10:48:57;;;;;;;2.95;1.60;;;;;;;3.41;57.00;148523.03;1694820;84;21367;-57
2022/01/07 10:51:41;;;;;;;3.55;1.75;;;;;;;3.40;55.22;148520.45;1695010;84;21064;-59
2022/01/07 10:54:10;;;;;;;2.60;1.50;;;;;;;3.36;55.45;148510.14;1694947;84;21012;-62
2022/01/07 10:56:47;;;;;;;2.95;1.70;;;;;;;3.33;55.91;148502.41;1695425;84;21260;-64
2022/01/07 10:59:20;;;;;;;4.12;2.22;;;;;;;3.30;56.35;148494.67;1694693;83;21083;-63
2022/01/07 11:01:48;;;;;;;3.37;1.70;;;;;;;3.32;56.47;148499.81;1695167;83;21497;-63
2022/01/07 11:04:26;;;;;;;3.25;1.40;;;;;;;3.34;56.89;148504.97;1694790;84;21059;-62
2022/01/07 11:06:56;;;;;;;7.83;2.00;;;;;;;3.33;57.01;148502.41;1694808;84;21403;-61
2022/01/07 11:09:23;;;;;;;4.95;1.82;;;;;;;3.36;57.20;148508.87;1695019;83;21754;-61
2022/01/07 11:11:57;;;;;;;7.97;4.15;;;;;;;3.36;57.31;148510.14;1694459;83;20913;-64
2022/01/07 11:14:26;;;;;;;10.60;4.28;;;;;;;3.38;56.91;148514.03;1694565;84;21131;-63
2022/01/07 11:16:58;;;;;;;3.35;1.45;;;;;;;3.38;57.23;148515.30;1694324;84;20985;-62
2022/01/07 11:19:31;;;;;;;6.80;3.08;;;;;;;3.36;56.64;148508.87;1694365;82;22226;-62
2022/01/07 11:21:59;;;;;;;7.62;2.90;;;;;;;3.33;56.81;148502.41;1694292;84;21143;-62
2022/01/07 11:24:36;;;;;;;8.78;1.85;;;;;;;3.32;56.36;148499.81;1694979;84;21068;-62
2022/01/07 11:27:07;;;;;;;13.68;6.10;;;;;;;3.33;55.95;148502.41;1695345;84;21051;-63
2022/01/07 11:29:38;;;;;;;5.22;2.15;;;;;;;3.32;55.77;148499.81;1695439;84;21013;-63
2022/01/07 11:32:40;;;;;;;3.60;1.55;;;;;;;3.32;56.18;148498.56;1694814;83;20941;-62
2022/01/07 11:35:24;;;;;;;7.03;3.20;;;;;;;3.32;55.53;148499.81;1695024;83;21140;-63
2022/01/07 11:37:59;;;;;;;13.98;6.55;;;;;;;3.34;55.67;148504.97;1695049;84;21453;-62